Time;durP1;ratioP1;P1;durP2;ratioP2;P2;SDS_P1;SDS_P2;PMS_P1;PMS_P2;Temp;Humidity;BMP_temperature;BMP_pressure;BME280_temperature;BME280_humidity;BME280_pressure;Samples;Min_cycle;Max_cycle;Signal;HPM_P1;HPM_P2
2021/11/17 02:26:54;;;;;;;60.60;23.35;;;;;;;;;;6224909;23;20031;-96
2021/11/17 02:33:12;;;;;;;63.53;23.75;;;;;;;;;;6100693;23;20479;-96
2021/11/17 02:36:04;;;;;;;54.35;22.60;;;;;;;;;;6105555;23;20022;-96
2021/11/17 02:39:15;;;;;;;47.28;22.52;;;;;;;;;;6103984;23;20003;-96
2021/11/17 02:42:00;;;;;;;65.30;24.98;;;;;;;;;;6156801;23;20009;-96
2021/11/17 02:44:47;;;;;;;51.38;21.85;;;;;;;;;;6191805;23;20085;-96
2021/11/17 02:47:21;;;;;;;58.25;25.13;;;;;;;;;;6141089;23;20005;-96
2021/11/17 02:49:47;;;;;;;55.60;23.60;;;;;;;;;;6189874;23;20431;-96
2021/11/17 02:52:25;;;;;;;60.95;26.25;;;;;;;;;;6164730;23;20005;-96
2021/11/17 02:55:27;;;;;;;65.55;24.45;;;;;;;;;;6192588;23;20316;-96
2021/11/17 02:58:30;;;;;;;56.13;23.30;;;;;;;;;;6191782;23;20009;-96
2021/11/17 03:01:19;;;;;;;58.13;24.67;;;;;;;;;;6191981;23;20005;-96
2021/11/17 03:03:52;;;;;;;66.10;24.02;;;;;;;;;;6191236;23;20020;-91
2021/11/17 03:06:40;;;;;;;61.03;24.55;;;;;;;;;;6167345;23;20008;-94
2021/11/17 03:09:15;;;;;;;59.55;23.77;;;;;;;;;;6162791;23;20005;-96
2021/11/17 03:12:26;;;;;;;54.63;22.63;;;;;;;;;;6198773;23;20016;-96
2021/11/17 03:18:26;;;;;;;60.60;24.23;;;;;;;;;;6201832;23;20039;-96
2021/11/17 03:21:34;;;;;;;49.38;20.90;;;;;;;;;;6186960;23;20036;-96
2021/11/17 03:24:33;;;;;;;57.42;22.80;;;;;;;;;;6197573;23;20339;-96
2021/11/17 03:27:51;;;;;;;59.25;21.80;;;;;;;;;;6194876;23;20020;-96
2021/11/17 03:30:53;;;;;;;50.72;22.10;;;;;;;;;;6211377;23;20050;-92
2021/11/17 03:33:58;;;;;;;49.33;22.08;;;;;;;;;;6206256;23;20062;-94
2021/11/17 03:37:06;;;;;;;52.50;22.73;;;;;;;;;;6226632;23;20021;-96
2021/11/17 03:40:11;;;;;;;51.97;22.75;;;;;;;;;;6212225;23;20438;-96
2021/11/17 03:42:57;;;;;;;57.13;25.33;;;;;;;;;;6228603;23;20039;-96
2021/11/17 03:45:34;;;;;;;;;;;;;;;;;;6174403;23;20055;-95
2021/11/17 03:48:27;;;;;;;51.85;22.33;;;;;;;;;;6204054;23;19924;-96
2021/11/17 03:51:39;;;;;;;58.45;23.02;;;;;;;;;;6184783;23;20004;-93
2021/11/17 03:55:01;;;;;;;46.60;21.40;;;;;;;;;;6229346;23;20056;-96
2021/11/17 03:57:52;;;;;;;54.40;23.00;;;;;;;;;;6110960;23;20007;-96
2021/11/17 04:00:47;;;;;;;;;;;;;;;;;;6055490;23;20007;-96
2021/11/17 04:06:56;;;;;;;58.95;22.60;;;;;;;;;;6065577;23;20059;-96
2021/11/17 04:10:05;;;;;;;48.42;22.55;;;;;;;;;;6053084;23;20007;-95
2021/11/17 04:12:51;;;;;;;46.92;21.48;;;;;;;;;;6073049;23;20013;-96
2021/11/17 04:15:58;;;;;;;56.35;23.65;;;;;;;;;;6184471;23;20020;-96
2021/11/17 04:19:08;;;;;;;61.08;24.25;;;;;;;;;;6183300;23;20049;-88
2021/11/17 04:21:40;;;;;;;53.50;21.52;;;;;;;;;;6144443;23;20461;-96
2021/11/17 04:24:24;;;;;;;52.88;22.92;;;;;;;;;;6140479;23;20085;-96
2021/11/17 04:27:30;;;;;;;60.85;25.38;;;;;;;;;;6164098;23;20009;-96
2021/11/17 04:30:15;;;;;;;60.03;24.45;;;;;;;;;;6139363;23;20021;-95
2021/11/17 04:32:52;;;;;;;51.63;23.67;;;;;;;;;;6193818;23;20076;-96
2021/11/17 04:35:34;;;;;;;52.85;21.77;;;;;;;;;;6197698;23;20434;-95
2021/11/17 04:38:03;;;;;;;50.63;21.98;;;;;;;;;;6198391;23;20012;-96
2021/11/17 04:41:01;;;;;;;50.05;21.90;;;;;;;;;;6197718;23;20012;-96
2021/11/17 04:44:07;;;;;;;45.75;20.58;;;;;;;;;;6024236;23;20034;-95
2021/11/17 04:47:19;;;;;;;48.50;21.08;;;;;;;;;;6002914;23;20002;-96
2021/11/17 04:50:32;;;;;;;49.65;21.63;;;;;;;;;;6078462;23;20081;-93
2021/11/17 04:53:45;;;;;;;56.63;22.60;;;;;;;;;;6079544;23;20011;-96
2021/11/17 04:56:51;;;;;;;52.88;21.70;;;;;;;;;;6086733;23;20077;-96
2021/11/17 05:03:09;;;;;;;49.53;20.85;;;;;;;;;;6147539;23;20029;-87
2021/11/17 05:05:55;;;;;;;;;;;;;;;;;;6154624;23;20001;-87
2021/11/17 05:08:44;;;;;;;38.97;17.08;;;;;;;;;;6211837;23;19908;-95
2021/11/17 05:11:38;;;;;;;48.42;21.35;;;;;;;;;;6206245;23;20012;-96
2021/11/17 05:14:24;;;;;;;47.10;20.67;;;;;;;;;;6199607;23;20059;-96
2021/11/17 05:20:17;;;;;;;52.42;20.98;;;;;;;;;;6196557;23;20445;-96
2021/11/17 05:23:33;;;;;;;46.97;20.75;;;;;;;;;;6152792;23;19993;-96
2021/11/17 05:26:22;;;;;;;48.55;20.30;;;;;;;;;;6135678;23;20002;-95
2021/11/17 05:29:12;;;;;;;49.30;21.85;;;;;;;;;;6095204;23;20036;-91
2021/11/17 05:32:07;;;;;;;48.05;20.60;;;;;;;;;;6226687;23;20017;-96
2021/11/17 05:35:17;;;;;;;45.15;19.38;;;;;;;;;;6221835;23;20013;-94
2021/11/17 05:38:26;;;;;;;51.35;21.02;;;;;;;;;;6208142;23;20001;-95
2021/11/17 05:47:24;;;;;;;54.75;21.40;;;;;;;;;;6106572;23;20451;-89
2021/11/17 05:50:29;;;;;;;53.00;21.35;;;;;;;;;;6100537;23;20029;-95
2021/11/17 05:53:16;;;;;;;;;;;;;;;;;;6103729;23;20006;-95
2021/11/17 05:56:53;;;;;;;46.20;19.40;;;;;;;;;;6101237;23;19932;-93
2021/11/17 06:00:00;;;;;;;47.35;19.02;;;;;;;;;;6100237;23;20081;-96
2021/11/17 06:06:06;;;;;;;51.92;22.05;;;;;;;;;;6107816;23;20064;-96
2021/11/17 06:08:34;;;;;;;44.92;20.05;;;;;;;;;;6104267;23;20046;-94
2021/11/17 06:11:05;;;;;;;53.50;22.60;;;;;;;;;;6165545;23;20056;-85
2021/11/17 06:13:31;;;;;;;60.45;23.75;;;;;;;;;;6223496;23;20100;-88
2021/11/17 06:15:58;;;;;;;56.25;22.15;;;;;;;;;;6196008;23;20040;-92
2021/11/17 06:18:26;;;;;;;57.30;23.50;;;;;;;;;;6218306;23;20071;-87
2021/11/17 06:20:56;;;;;;;45.10;21.90;;;;;;;;;;6192258;23;20406;-92
2021/11/17 06:23:31;;;;;;;58.22;23.52;;;;;;;;;;6220496;23;20000;-96
2021/11/17 06:26:15;;;;;;;48.28;21.85;;;;;;;;;;6223385;23;20011;-96
2021/11/17 06:29:02;;;;;;;50.95;22.42;;;;;;;;;;6197082;23;20008;-95
2021/11/17 06:32:05;;;;;;;56.97;24.48;;;;;;;;;;6224114;23;20016;-89
2021/11/17 06:35:07;;;;;;;49.60;20.45;;;;;;;;;;6227256;23;20020;-96
2021/11/17 06:37:43;;;;;;;48.10;22.20;;;;;;;;;;6224471;23;20011;-92
2021/11/17 06:43:20;;;;;;;49.97;21.33;;;;;;;;;;6233044;23;20388;-94
2021/11/17 06:48:59;;;;;;;53.72;22.27;;;;;;;;;;6015055;23;20109;-96
2021/11/17 06:57:06;;;;;;;47.50;19.70;;;;;;;;;;6261482;22;20063;-93
2021/11/17 07:08:00;;;;;;;48.70;20.60;;;;;;;;;;6252792;22;20043;-95
2021/11/17 07:18:38;;;;;;;51.13;21.65;;;;;;;;;;6240809;22;20220;-94
2021/11/17 07:21:10;;;;;;;89.32;43.20;;;;;;;;;;6193359;22;20354;-95
2021/11/17 07:32:34;;;;;;;46.33;19.98;;;;;;;;;;6222837;22;20061;31
2021/11/17 07:35:04;;;;;;;51.20;21.65;;;;;;;;;;6261902;22;20125;-91
2021/11/17 07:45:38;;;;;;;47.72;21.02;;;;;;;;;;6228251;22;20020;-95
2021/11/17 07:48:23;;;;;;;45.33;20.63;;;;;;;;;;6254256;22;20027;-93
2021/11/17 07:53:28;;;;;;;46.42;21.33;;;;;;;;;;6257475;22;20084;-93
2021/11/17 07:56:05;;;;;;;53.35;22.27;;;;;;;;;;6200207;22;20020;-93
2021/11/17 07:58:34;;;;;;;41.22;19.92;;;;;;;;;;6216063;23;20160;-92
2021/11/17 08:06:30;;;;;;;58.70;24.80;;;;;;;;;;6236273;22;20039;-94
2021/11/17 08:11:40;;;;;;;91.28;32.25;;;;;;;;;;6221682;22;20008;-92
2021/11/17 08:16:52;;;;;;;57.97;24.35;;;;;;;;;;6228032;22;20103;-92
2021/11/17 08:19:43;;;;;;;56.03;23.08;;;;;;;;;;6244489;23;20008;-95
2021/11/17 08:44:12;;;;;;;45.80;21.08;;;;;;;;;;6253769;22;20015;-92
2021/11/17 08:53:15;;;;;;;44.75;19.00;;;;;;;;;;6251420;22;20092;-93
2021/11/17 08:56:10;;;;;;;46.47;19.83;;;;;;;;;;6275593;22;20008;-93
2021/11/17 08:58:37;;;;;;;47.13;19.40;;;;;;;;;;6239126;23;20043;-91
2021/11/17 09:01:17;;;;;;;42.28;20.77;;;;;;;;;;6244006;23;19989;-92
2021/11/17 09:06:46;;;;;;;40.88;19.73;;;;;;;;;;6237082;22;20437;-93
2021/11/17 09:09:37;;;;;;;47.95;19.92;;;;;;;;;;6270526;22;20015;-93
2021/11/17 09:12:25;;;;;;;47.45;19.90;;;;;;;;;;6297882;22;20008;-94
2021/11/17 09:15:52;;;;;;;43.97;19.77;;;;;;;;;;6260873;22;20064;-94
2021/11/17 09:18:42;;;;;;;43.08;20.02;;;;;;;;;;6298749;22;19996;-94
2021/11/17 09:21:34;;;;;;;43.15;19.48;;;;;;;;;;6298098;22;20386;-92
2021/11/17 09:24:43;;;;;;;44.08;19.52;;;;;;;;;;6287580;22;20012;-94
2021/11/17 09:30:35;;;;;;;42.28;18.73;;;;;;;;;;6302417;22;20015;-93
2021/11/17 09:33:23;;;;;;;46.70;19.95;;;;;;;;;;6304970;22;19999;-95
2021/11/17 09:36:19;;;;;;;42.35;21.23;;;;;;;;;;6278967;22;19999;-94
2021/11/17 09:52:36;;;;;;;41.85;19.85;;;;;;;;;;6291427;22;20010;-94
2021/11/17 09:59:03;;;;;;;44.88;20.42;;;;;;;;;;6185011;23;19994;-94
2021/11/17 10:15:51;;;;;;;51.65;21.27;;;;;;;;;;6218218;22;20007;-91
2021/11/17 10:19:07;;;;;;;47.17;20.38;;;;;;;;;;6243922;22;20009;-94
2021/11/17 10:22:30;;;;;;;44.03;20.92;;;;;;;;;;6124677;23;19998;-94
2021/11/17 10:25:29;;;;;;;53.55;22.48;;;;;;;;;;6124743;23;20003;-93
2021/11/17 10:28:22;;;;;;;47.00;21.45;;;;;;;;;;6244897;22;20012;-91
2021/11/17 10:31:48;;;;;;;51.35;22.60;;;;;;;;;;6245086;22;20001;-92
2021/11/17 10:34:39;;;;;;;56.63;22.65;;;;;;;;;;6153560;23;20025;-93
2021/11/17 10:38:10;;;;;;;69.72;31.90;;;;;;;;;;6152381;23;20013;-92
2021/11/17 10:41:28;;;;;;;96.10;35.20;;;;;;;;;;6153297;23;20025;-93
2021/11/17 10:44:41;;;;;;;61.88;25.90;;;;;;;;;;6141425;23;20042;-94
2021/11/17 10:47:27;;;;;;;44.72;21.58;;;;;;;;;;6177235;22;20051;-93
2021/11/17 10:50:14;;;;;;;48.33;22.38;;;;;;;;;;6248329;22;20023;-92
2021/11/17 10:53:41;;;;;;;56.85;22.25;;;;;;;;;;6212147;23;20005;-92
2021/11/17 10:56:14;;;;;;;50.65;22.85;;;;;;;;;;6123892;23;20018;-92
2021/11/17 11:02:02;;;;;;;54.30;22.70;;;;;;;;;;6255984;22;20000;-92
2021/11/17 11:31:09;;;;;;;48.85;21.23;;;;;;;;;;6208230;22;20012;-93
2021/11/17 11:34:07;;;;;;;48.17;21.10;;;;;;;;;;6243557;23;20013;-92
2021/11/17 11:37:20;;;;;;;49.63;23.02;;;;;;;;;;6244119;23;20004;-90
2021/11/17 11:45:30;;;;;;;49.58;22.00;;;;;;;;;;6230894;22;20021;-93
2021/11/17 11:48:01;;;;;;;56.08;23.13;;;;;;;;;;6238885;23;20009;-96
2021/11/17 11:51:10;;;;;;;55.63;22.55;;;;;;;;;;6237505;23;20015;-94
2021/11/17 11:53:56;;;;;;;54.15;22.90;;;;;;;;;;6194194;22;20024;-96
2021/11/17 11:56:48;;;;;;;53.10;23.17;;;;;;;;;;6216740;22;20004;-91
2021/11/17 11:59:52;;;;;;;57.88;24.63;;;;;;;;;;6250414;22;20031;-95
2021/11/17 12:03:09;;;;;;;58.60;23.55;;;;;;;;;;6225082;22;20020;-94
2021/11/17 12:06:18;;;;;;;51.10;23.23;;;;;;;;;;6271627;22;20027;-92
2021/11/17 12:09:33;;;;;;;46.83;20.77;;;;;;;;;;6271868;22;20064;-93
2021/11/17 12:12:34;;;;;;;46.17;21.27;;;;;;;;;;6238005;22;19988;-92
2021/11/17 12:18:32;;;;;;;50.33;22.17;;;;;;;;;;6175362;23;20055;-91
2021/11/17 12:47:48;;;;;;;47.40;22.25;;;;;;;;;;6238719;22;20043;-92
2021/11/17 12:53:54;;;;;;;63.08;23.48;;;;;;;;;;6204637;23;20005;-82
2021/11/17 12:56:50;;;;;;;47.28;21.60;;;;;;;;;;6167495;23;20014;-82
2021/11/17 12:59:29;;;;;;;48.90;23.13;;;;;;;;;;6136424;23;20068;-83
2021/11/17 13:17:18;;;;;;;60.20;23.05;;;;;;;;;;6216643;23;20043;-82
2021/11/17 13:23:30;;;;;;;;;;;;;;;;;;;;;
2021/11/17 13:28:56;;;;;;;49.28;23.02;;;;;;;;;;6262744;22;20059;-83
2021/11/17 13:34:09;;;;;;;56.65;25.67;;;;;;;;;;6269361;22;20004;-84
2021/11/17 13:36:49;;;;;;;57.75;24.90;;;;;;;;;;6269311;22;20008;-82
2021/11/17 13:39:29;;;;;;;55.38;22.55;;;;;;;;;;6269895;22;20009;-83
2021/11/17 13:41:56;;;;;;;49.75;22.65;;;;;;;;;;6245018;23;20060;-84
2021/11/17 13:44:24;;;;;;;54.33;22.90;;;;;;;;;;6234749;22;20027;-82
2021/11/17 13:46:56;;;;;;;51.13;22.73;;;;;;;;;;6241068;23;20303;-83
2021/11/17 13:49:29;;;;;;;47.55;22.73;;;;;;;;;;6241696;22;20020;-82
2021/11/17 13:57:27;;;;;;;48.97;21.95;;;;;;;;;;6265553;22;20011;-85
2021/11/17 13:59:56;;;;;;;44.17;21.67;;;;;;;;;;6242197;23;20056;-84
2021/11/17 14:02:27;;;;;;;49.53;23.48;;;;;;;;;;6267424;23;20007;-85
2021/11/17 14:08:50;;;;;;;55.33;22.20;;;;;;;;;;6163770;23;20021;-83
2021/11/17 14:11:31;;;;;;;46.60;22.08;;;;;;;;;;6181673;23;20009;-84
2021/11/17 14:14:06;;;;;;;59.33;23.67;;;;;;;;;;6183072;23;20116;-84
2021/11/17 14:17:04;;;;;;;52.85;22.90;;;;;;;;;;6185013;23;20017;-83
2021/11/17 14:20:11;;;;;;;56.63;22.92;;;;;;;;;;6208419;23;20013;-84
2021/11/17 14:40:19;;;;;;;57.08;23.60;;;;;;;;;;6278059;22;20013;31
2021/11/17 14:48:45;;;;;;;65.15;25.27;;;;;;;;;;6258982;22;20049;-83
2021/11/17 15:29:09;;;;;;;53.35;22.10;;;;;;;;;;6249340;22;20028;-90
2021/11/17 15:32:19;;;;;;;57.38;23.73;;;;;;;;;;6234320;22;20016;-89
2021/11/17 15:40:47;;;;;;;52.03;24.15;;;;;;;;;;6255196;22;20083;-88
2021/11/17 15:48:58;;;;;;;56.10;23.65;;;;;;;;;;6251205;22;20028;-92
2021/11/17 15:51:41;;;;;;;48.08;24.10;;;;;;;;;;6228963;22;20042;31
2021/11/17 16:08:33;;;;;;;53.67;23.50;;;;;;;;;;6299965;22;20022;-90
2021/11/17 16:11:33;;;;;;;59.10;24.63;;;;;;;;;;6300886;22;19991;-90
2021/11/17 16:14:32;;;;;;;63.40;23.95;;;;;;;;;;6284258;22;20059;-89
2021/11/17 16:20:49;;;;;;;50.63;22.37;;;;;;;;;;6293772;22;20051;-89
2021/11/17 16:55:59;;;;;;;55.63;23.45;;;;;;;;;;6229506;23;20078;-88
2021/11/17 16:59:08;;;;;;;56.78;24.85;;;;;;;;;;6229959;23;20015;-86
2021/11/17 17:14:55;;;;;;;64.30;25.95;;;;;;;;;;6183966;23;20016;-83
2021/11/17 17:17:34;;;;;;;61.00;26.20;;;;;;;;;;6217530;23;20005;-91
2021/11/17 17:20:01;;;;;;;63.20;27.35;;;;;;;;;;6195789;23;20032;-92
2021/11/17 17:22:37;;;;;;;64.30;27.20;;;;;;;;;;6196607;23;20000;-96
2021/11/17 17:25:06;;;;;;;69.72;28.95;;;;;;;;;;6199082;23;19994;-94
2021/11/17 17:27:41;;;;;;;68.15;31.00;;;;;;;;;;6199597;23;20091;-94
2021/11/17 17:30:19;;;;;;;75.20;30.30;;;;;;;;;;6195353;23;20008;-92
2021/11/17 17:33:11;;;;;;;57.80;26.50;;;;;;;;;;6176866;23;20017;-92
2021/11/17 17:35:36;;;;;;;81.85;32.28;;;;;;;;;;6223314;23;20462;-94
2021/11/17 17:38:03;;;;;;;83.00;30.45;;;;;;;;;;6195707;23;20369;-94
2021/11/17 17:40:33;;;;;;;67.60;28.30;;;;;;;;;;6223119;23;20032;-92
2021/11/17 17:43:01;;;;;;;62.55;27.58;;;;;;;;;;6180609;23;20117;-93
2021/11/17 17:45:39;;;;;;;67.40;27.83;;;;;;;;;;6224579;23;20008;-91
2021/11/17 17:48:19;;;;;;;66.97;28.33;;;;;;;;;;6176778;23;20015;-94
2021/11/17 17:50:56;;;;;;;76.07;29.45;;;;;;;;;;6198061;23;20450;-92
2021/11/17 17:53:28;;;;;;;77.97;33.03;;;;;;;;;;6194713;23;20088;-94
2021/11/17 17:56:05;;;;;;;70.10;30.83;;;;;;;;;;6222982;23;20012;-93
2021/11/17 17:58:32;;;;;;;77.53;33.33;;;;;;;;;;6198015;23;20005;-93
2021/11/17 18:01:00;;;;;;;86.28;34.40;;;;;;;;;;6200836;23;20039;-92
2021/11/17 18:03:41;;;;;;;91.68;33.42;;;;;;;;;;6179098;23;20016;-94
2021/11/17 18:06:30;;;;;;;82.43;33.13;;;;;;;;;;6234690;23;20013;-92
2021/11/17 18:09:25;;;;;;;67.63;30.90;;;;;;;;;;6210689;23;19988;-89
2021/11/17 18:17:22;;;;;;;76.75;32.33;;;;;;;;;;6207837;22;20020;-90
2021/11/17 18:22:36;;;;;;;68.50;30.30;;;;;;;;;;6263848;22;20079;-91
2021/11/17 18:35:31;;;;;;;74.38;29.67;;;;;;;;;;6215669;22;20035;-95
2021/11/17 18:46:55;;;;;;;61.55;25.17;;;;;;;;;;6170391;23;20047;-95
2021/11/17 18:49:48;;;;;;;59.65;26.20;;;;;;;;;;6214005;23;20036;-93
2021/11/17 18:52:56;;;;;;;55.60;24.58;;;;;;;;;;6109871;23;20026;-91
2021/11/17 18:59:43;;;;;;;52.38;23.42;;;;;;;;;;6239528;22;20024;-91
2021/11/17 19:12:37;;;;;;;61.53;26.75;;;;;;;;;;6281782;22;20031;-91
2021/11/17 19:15:08;;;;;;;58.80;24.30;;;;;;;;;;6268480;23;20012;-90
2021/11/17 19:17:39;;;;;;;56.78;24.20;;;;;;;;;;6266496;23;20042;-91
2021/11/17 19:25:58;;;;;;;50.65;21.00;;;;;;;;;;6244941;22;20024;-95
2021/11/17 19:28:27;;;;;;;50.88;21.55;;;;;;;;;;6216468;23;20012;-93
2021/11/17 19:30:54;;;;;;;48.22;21.50;;;;;;;;;;6217398;23;20000;-94
2021/11/17 19:33:20;;;;;;;48.85;19.98;;;;;;;;;;6216180;23;20040;-88
2021/11/17 19:35:47;;;;;;;46.35;21.58;;;;;;;;;;6216043;23;20116;-94
2021/11/17 19:38:15;;;;;;;49.35;22.40;;;;;;;;;;6215910;23;20011;-93
2021/11/17 19:40:48;;;;;;;51.40;21.75;;;;;;;;;;6216118;23;20000;-92
2021/11/17 19:43:16;;;;;;;44.15;20.08;;;;;;;;;;6215890;23;20012;-95
2021/11/17 19:45:42;;;;;;;50.22;20.30;;;;;;;;;;6215957;23;20009;-93
2021/11/17 19:48:08;;;;;;;44.25;19.85;;;;;;;;;;6215899;23;20008;-94
2021/11/17 19:50:36;;;;;;;44.45;20.00;;;;;;;;;;6217644;23;19997;-93
2021/11/17 19:53:02;;;;;;;47.83;21.23;;;;;;;;;;6216086;23;20056;-87
2021/11/17 19:55:29;;;;;;;49.20;21.05;;;;;;;;;;6216461;23;20039;-96
2021/11/17 19:57:56;;;;;;;48.95;19.75;;;;;;;;;;6218105;23;20005;-93
2021/11/17 20:00:25;;;;;;;53.55;21.52;;;;;;;;;;6216453;23;20044;-90
2021/11/17 20:02:51;;;;;;;46.90;20.52;;;;;;;;;;6218040;23;20000;-92
2021/11/17 20:05:17;;;;;;;49.20;22.77;;;;;;;;;;6215558;23;20000;-94
2021/11/17 20:07:44;;;;;;;46.05;20.35;;;;;;;;;;6215877;23;20005;-95
2021/11/17 20:10:12;;;;;;;52.20;23.92;;;;;;;;;;6216119;23;20051;-93
2021/11/17 20:12:40;;;;;;;53.38;23.05;;;;;;;;;;6217884;23;20091;-92
2021/11/17 20:15:12;;;;;;;51.92;23.60;;;;;;;;;;6215942;23;20009;-94
2021/11/17 20:17:38;;;;;;;48.85;21.92;;;;;;;;;;6216845;23;20008;-96
2021/11/17 20:20:05;;;;;;;56.88;22.70;;;;;;;;;;6216303;23;20028;-91
2021/11/17 20:22:33;;;;;;;49.95;20.58;;;;;;;;;;6216043;23;20004;-95
2021/11/17 20:25:00;;;;;;;42.90;19.70;;;;;;;;;;6238616;23;20020;-92
2021/11/17 20:27:27;;;;;;;52.60;20.00;;;;;;;;;;6217215;23;20009;-89
2021/11/17 20:29:53;;;;;;;46.05;20.48;;;;;;;;;;6228777;23;20056;-87
2021/11/17 20:32:20;;;;;;;38.63;18.20;;;;;;;;;;6242197;22;20012;-88
2021/11/17 20:34:48;;;;;;;38.50;17.75;;;;;;;;;;6242415;23;20005;-85
2021/11/17 20:37:18;;;;;;;38.88;17.02;;;;;;;;;;6238654;23;20096;-86
2021/11/17 20:39:44;;;;;;;49.00;19.73;;;;;;;;;;6223003;23;20012;-90
2021/11/17 20:42:10;;;;;;;45.35;21.98;;;;;;;;;;6217816;23;20459;-88
2021/11/17 20:44:36;;;;;;;44.65;21.23;;;;;;;;;;6216929;23;20069;-92
2021/11/17 20:47:02;;;;;;;49.10;23.15;;;;;;;;;;6192472;23;20015;-94
2021/11/17 20:49:29;;;;;;;51.20;23.33;;;;;;;;;;6216492;23;20023;-88
2021/11/17 20:51:55;;;;;;;53.22;24.38;;;;;;;;;;6215777;23;20016;-87
2021/11/17 20:54:21;;;;;;;56.13;25.00;;;;;;;;;;6215646;23;20330;-89
2021/11/17 20:56:48;;;;;;;43.90;20.20;;;;;;;;;;6216984;23;20460;-92
2021/11/17 20:59:14;;;;;;;42.75;20.13;;;;;;;;;;6217446;23;20032;-87
2021/11/17 21:01:40;;;;;;;30.77;13.88;;;;;;;;;;6218278;23;20005;-95
2021/11/17 21:04:07;;;;;;;17.55;8.93;;;;;;;;;;6219791;23;19996;-96
2021/11/17 21:06:33;;;;;;;15.18;7.05;;;;;;;;;;6217627;23;20444;-95
2021/11/17 21:09:00;;;;;;;14.05;7.13;;;;;;;;;;6217833;23;20005;-95
2021/11/17 21:11:29;;;;;;;14.25;6.93;;;;;;;;;;6242907;23;20004;-94
2021/11/17 21:13:57;;;;;;;18.00;6.03;;;;;;;;;;6218654;23;20012;-94
2021/11/17 21:16:24;;;;;;;14.00;5.88;;;;;;;;;;6218991;23;20012;-94
2021/11/17 21:19:00;;;;;;;11.70;5.63;;;;;;;;;;6217317;23;20001;-95
2021/11/17 21:21:30;;;;;;;13.43;6.22;;;;;;;;;;6219665;23;20012;-96
2021/11/17 21:24:03;;;;;;;16.02;7.68;;;;;;;;;;6193698;23;20035;-95
2021/11/17 21:26:30;;;;;;;13.20;7.10;;;;;;;;;;6212605;23;20025;-93
2021/11/17 21:28:57;;;;;;;16.50;7.55;;;;;;;;;;6213149;23;20005;-92
2021/11/17 21:31:27;;;;;;;16.98;7.22;;;;;;;;;;6189234;23;19997;-89
2021/11/17 21:33:53;;;;;;;13.70;7.05;;;;;;;;;;6211996;23;20004;-88
2021/11/17 21:36:19;;;;;;;13.30;6.63;;;;;;;;;;6212071;23;20016;-96
2021/11/17 21:38:45;;;;;;;13.55;6.60;;;;;;;;;;6212384;23;20001;-93
2021/11/17 21:41:13;;;;;;;11.88;5.53;;;;;;;;;;6212089;23;20001;-94
2021/11/17 21:43:39;;;;;;;11.35;5.95;;;;;;;;;;6212832;23;20065;-94
2021/11/17 21:46:05;;;;;;;13.45;6.05;;;;;;;;;;6188982;23;20095;-91
2021/11/17 21:48:32;;;;;;;12.90;5.75;;;;;;;;;;6213553;23;20079;-96
2021/11/17 21:50:58;;;;;;;16.98;7.22;;;;;;;;;;6213830;23;20068;-93
2021/11/17 21:53:24;;;;;;;17.13;7.38;;;;;;;;;;6190498;23;20441;-95
2021/11/17 21:55:51;;;;;;;19.45;7.97;;;;;;;;;;6213349;23;20013;-92
2021/11/17 21:58:18;;;;;;;16.23;7.43;;;;;;;;;;6189768;23;20005;-93
2021/11/17 22:00:47;;;;;;;22.88;9.57;;;;;;;;;;6190530;23;20008;-95
2021/11/17 22:03:14;;;;;;;26.90;11.20;;;;;;;;;;6189344;23;20009;-92
2021/11/17 22:06:04;;;;;;;23.20;10.50;;;;;;;;;;6164798;23;20013;-96
2021/11/17 22:08:40;;;;;;;22.75;9.10;;;;;;;;;;6184796;23;20064;-96
2021/11/17 22:11:27;;;;;;;16.05;8.00;;;;;;;;;;6191327;23;20037;-95
2021/11/17 22:14:00;;;;;;;13.23;6.38;;;;;;;;;;6215311;23;20009;-96
2021/11/17 22:16:35;;;;;;;13.00;5.80;;;;;;;;;;6190984;23;20012;-96
2021/11/17 22:19:20;;;;;;;8.52;5.07;;;;;;;;;;6209409;23;20061;-93
2021/11/17 22:22:09;;;;;;;14.77;5.70;;;;;;;;;;6215981;23;20024;-96
2021/11/17 22:24:36;;;;;;;11.65;6.03;;;;;;;;;;6190894;23;20064;-96
2021/11/17 22:27:02;;;;;;;11.27;6.13;;;;;;;;;;6221432;23;20066;-96
2021/11/17 22:29:30;;;;;;;11.82;6.18;;;;;;;;;;6221349;23;20016;-95
2021/11/17 22:31:57;;;;;;;13.35;5.88;;;;;;;;;;6218997;23;20064;-95
2021/11/17 22:34:23;;;;;;;14.23;4.93;;;;;;;;;;6219582;23;20028;-91
2021/11/17 22:36:49;;;;;;;9.82;4.82;;;;;;;;;;6218073;23;20181;-93
2021/11/17 22:39:19;;;;;;;9.82;5.13;;;;;;;;;;6217453;23;20004;-95
2021/11/17 22:41:45;;;;;;;11.95;4.70;;;;;;;;;;6216196;23;20008;-95
2021/11/17 22:44:12;;;;;;;9.63;5.13;;;;;;;;;;6218136;23;19997;-95
2021/11/17 22:46:39;;;;;;;10.93;5.22;;;;;;;;;;6217319;23;20004;-94
2021/11/17 22:49:14;;;;;;;12.35;5.40;;;;;;;;;;6218380;23;20005;-92
2021/11/17 22:51:41;;;;;;;8.75;4.70;;;;;;;;;;6221394;23;20004;-89
2021/11/17 22:54:07;;;;;;;9.32;4.57;;;;;;;;;;6226769;23;20028;-90
2021/11/17 22:56:34;;;;;;;9.20;5.18;;;;;;;;;;6233224;23;20012;-92
2021/11/17 22:59:00;;;;;;;10.85;4.82;;;;;;;;;;6225394;23;20075;-94
2021/11/17 23:01:31;;;;;;;10.55;4.60;;;;;;;;;;6222393;23;20005;-95
2021/11/17 23:03:58;;;;;;;11.88;5.07;;;;;;;;;;6217411;23;20004;-96
2021/11/17 23:06:25;;;;;;;11.55;5.18;;;;;;;;;;6217000;23;20004;-95
2021/11/17 23:08:52;;;;;;;9.95;5.07;;;;;;;;;;6217365;23;20004;-96
2021/11/17 23:11:21;;;;;;;9.30;4.75;;;;;;;;;;6220866;23;20386;-95
2021/11/17 23:13:48;;;;;;;9.07;4.43;;;;;;;;;;6245213;23;20078;-92
2021/11/17 23:16:14;;;;;;;13.52;5.20;;;;;;;;;;6218546;23;20023;-94
2021/11/17 23:18:42;;;;;;;8.77;4.28;;;;;;;;;;6242542;23;20009;-95
2021/11/17 23:21:10;;;;;;;10.38;4.60;;;;;;;;;;6216859;23;20009;-95
2021/11/17 23:23:39;;;;;;;11.07;4.82;;;;;;;;;;6219323;23;20000;-94
2021/11/17 23:26:07;;;;;;;10.77;4.95;;;;;;;;;;6212141;23;20045;-92
2021/11/17 23:28:38;;;;;;;11.55;4.55;;;;;;;;;;6211750;23;20448;-94
2021/11/17 23:31:06;;;;;;;8.75;4.32;;;;;;;;;;6188000;23;20023;-95
2021/11/17 23:33:36;;;;;;;6.63;3.60;;;;;;;;;;6185919;23;20036;-92
2021/11/17 23:36:04;;;;;;;10.07;4.28;;;;;;;;;;6211675;23;20450;-93
2021/11/17 23:38:30;;;;;;;8.30;4.28;;;;;;;;;;6212183;23;20011;-93
2021/11/17 23:40:57;;;;;;;9.40;4.45;;;;;;;;;;6187644;23;20096;-96
2021/11/17 23:43:25;;;;;;;8.07;4.05;;;;;;;;;;6211396;23;20338;-94
2021/11/17 23:45:54;;;;;;;9.50;4.90;;;;;;;;;;6211787;23;20024;-95
2021/11/17 23:48:21;;;;;;;9.93;4.43;;;;;;;;;;6187352;23;20032;-95
2021/11/17 23:50:49;;;;;;;8.48;4.57;;;;;;;;;;6186912;23;20084;-93
2021/11/17 23:53:19;;;;;;;8.43;4.03;;;;;;;;;;6211173;23;20335;-95
2021/11/17 23:55:46;;;;;;;8.98;4.10;;;;;;;;;;6187474;23;20009;-95
2021/11/17 23:58:13;;;;;;;8.85;4.30;;;;;;;;;;6211561;23;20020;-96
